Soul City, North Carolina
Current Conditions -  °F | °C
As of 4:15 PM on Monday 22 Dec 2014 (Local Time) from KHNZ Reporting Station
Haze Haze  
Wind Chill: -1°   Ceiling: 300
Heat Index:   Visibility: 1.7mi
Dew Point:   Wind: 8mph
Humidity: 95%   Direction: 350°N
Pressure: 30.06"   Gusts: NA
Location:  36.4679°N, 78.2938°W
Report Text: KHNZ 222115Z AUTO 35007KT 1 3/4SM BR OVC003 03/02 A3006 RMK AO2 P0001 T00250017
Loading
Personal Weather Stations






























Interactive Weather Map New forecast layout! Learn more

10-Day Weather Forecast

Advertisements
Track Severe Weather on mobile